Buckley Air Force Base Aurora US
ICAO: KBKF
IATA: BFK
Category: Medium
Scheduled Services: No

Elevation: 5662 ft
TransAlt. 18000 ft.

Airport Communications:
DENVER APP/DEP:128.45
ATIS:119.675
GND/CLNC DEL:121.6
PMSV METRO:22.845
PTD:37.22
TWR:121

KBKF Zoom In..

If you have problems with the map follow the link
https://www.worldairports.se/pages/airport.php?
ICAO=KBKF

Runways:

(A) RW 14 length 11006 ft width 150 ft
---- / hdg 140

(B) RW 32 length 11006 ft width 150 ft
ILS 109.70 / hdg 320

Location; KBKF
Day. 21 / Time. 07.58 Zulu
* Altimeter: 30.25
* Temperature: 09° c. 48.2°f.
* Wind from: 190° Speed 11 kn.
Dewpoint: -06° c.
Visibility: 10 Statute Miles.
Clouds: Clear (automated report).

KBKF 210758Z 19011KT 10SM CLR 09/M06 A3025 RMK AO2A SLP196 T00881062


Wind From 190°
Speed 11 kn.

 
 
jpsmedia.com for Web Design worldairports.se 2018   terms of use